Portada
METAR-TAF:

METAR-TAF

Aeroports :

Mécheria, Algèria

latitud: 34-56N, longitud: 000-26W, altitud: 1149 m

Observació

L'informe es va fer fa 3 hores i 28 minuts, a les 18:00 UTC
Vent 12 kt del Sud
Temperatura 35°C
Humitat 16%
Pressió 1020 hPa
Visibilitat: 7000 m
Núvols disperses a una alçada de 3000 ft

METAR: DAAY 231800Z 18012KT 7000 SCT030 35/05 Q1020

Hora: 22:28 (21:28 UTC)

Pronòstic

L'informe es va fer fa 4 hores i 28 minuts, a les 17:00 UTC
Pronòstic vàlid del 23 a les 18 UTC al 24 a les 03 UTC
Vent 10 kt del Sud
Visibilitat: 7000 m
Núvols disperses a una alçada de 3000 ft
Evolucionant progressivament
l' 23 a les 22 UTC al 24 a les 01 UTC
Vent 15 kt del Est/Sud-Est

TAF: DAAY 231700Z 2318/2403 18010KT 7000 SCT030 BECMG 2322/2401 11015KT

Observacions i pronòstics meteorològics de més de 4000 aeroports (METAR i TAF).

Les estacions disponibles són els punts grocs i vermells al mapa.

Posi el ratolí al punt desitjat per veure el nom de l'estació.

Feu clic per veure les observacions i els pronòstics meteorològics.

Per canviar el mapa: feu clic els botons verds amb una creu de color negre per apropar; al botó verd amb un guió per allunyar la imatge; o en les fletxes verdes per a mapes adjacents.


METAR-TAF: